sensor_id;sensor_type;location;lat;lon;timestamp;P1;durP1;ratioP1;P2;durP2;ratioP2
26686;SDS011;14298;50.900;4.648;2023-03-03T00:01:47;4.53;;;4.13;;
26686;SDS011;14298;50.900;4.648;2023-03-03T00:04:15;5.53;;;4.27;;
26686;SDS011;14298;50.900;4.648;2023-03-03T00:06:44;10.83;;;4.27;;
26686;SDS011;14298;50.900;4.648;2023-03-03T00:09:12;5.53;;;5.07;;
26686;SDS011;14298;50.900;4.648;2023-03-03T00:11:40;7.67;;;4.77;;
26686;SDS011;14298;50.900;4.648;2023-03-03T00:14:24;5.60;;;3.40;;
26686;SDS011;14298;50.900;4.648;2023-03-03T00:17:01;3.80;;;3.40;;
26686;SDS011;14298;50.900;4.648;2023-03-03T00:19:35;9.33;;;5.97;;
26686;SDS011;14298;50.900;4.648;2023-03-03T00:22:06;6.00;;;5.40;;
26686;SDS011;14298;50.900;4.648;2023-03-03T00:24:36;6.07;;;4.97;;
26686;SDS011;14298;50.900;4.648;2023-03-03T00:27:22;6.57;;;4.73;;
26686;SDS011;14298;50.900;4.648;2023-03-03T00:30:00;5.87;;;5.37;;
26686;SDS011;14298;50.900;4.648;2023-03-03T00:32:37;4.87;;;4.43;;
26686;SDS011;14298;50.900;4.648;2023-03-03T00:37:59;5.97;;;4.77;;
26686;SDS011;14298;50.900;4.648;2023-03-03T00:40:36;5.03;;;4.30;;
26686;SDS011;14298;50.900;4.648;2023-03-03T00:43:22;4.93;;;4.07;;
26686;SDS011;14298;50.900;4.648;2023-03-03T00:45:59;7.73;;;5.87;;
26686;SDS011;14298;50.900;4.648;2023-03-03T00:48:25;7.80;;;5.00;;
26686;SDS011;14298;50.900;4.648;2023-03-03T00:51:07;3.87;;;2.87;;
26686;SDS011;14298;50.900;4.648;2023-03-03T00:53:50;3.37;;;3.03;;
26686;SDS011;14298;50.900;4.648;2023-03-03T00:56:18;5.47;;;4.50;;
26686;SDS011;14298;50.900;4.648;2023-03-03T00:58:47;4.73;;;4.30;;
26686;SDS011;14298;50.900;4.648;2023-03-03T01:01:16;8.03;;;5.60;;
26686;SDS011;14298;50.900;4.648;2023-03-03T01:03:45;5.27;;;4.00;;
26686;SDS011;14298;50.900;4.648;2023-03-03T01:06:13;5.90;;;3.67;;
26686;SDS011;14298;50.900;4.648;2023-03-03T01:08:42;4.77;;;4.20;;
26686;SDS011;14298;50.900;4.648;2023-03-03T01:11:19;3.77;;;3.53;;
26686;SDS011;14298;50.900;4.648;2023-03-03T01:13:48;6.63;;;4.93;;
26686;SDS011;14298;50.900;4.648;2023-03-03T01:16:18;5.40;;;5.00;;
26686;SDS011;14298;50.900;4.648;2023-03-03T01:18:47;7.47;;;5.50;;
26686;SDS011;14298;50.900;4.648;2023-03-03T01:21:16;4.83;;;3.73;;
26686;SDS011;14298;50.900;4.648;2023-03-03T01:23:44;4.27;;;3.97;;
26686;SDS011;14298;50.900;4.648;2023-03-03T01:26:12;6.50;;;3.93;;
26686;SDS011;14298;50.900;4.648;2023-03-03T01:28:41;5.10;;;3.80;;
26686;SDS011;14298;50.900;4.648;2023-03-03T01:31:09;7.00;;;4.73;;
26686;SDS011;14298;50.900;4.648;2023-03-03T01:33:38;4.37;;;3.90;;
26686;SDS011;14298;50.900;4.648;2023-03-03T01:36:06;3.40;;;3.20;;
26686;SDS011;14298;50.900;4.648;2023-03-03T01:38:35;7.73;;;3.47;;
26686;SDS011;14298;50.900;4.648;2023-03-03T01:41:05;4.87;;;4.43;;
26686;SDS011;14298;50.900;4.648;2023-03-03T01:43:33;4.10;;;3.67;;
26686;SDS011;14298;50.900;4.648;2023-03-03T01:46:50;4.77;;;3.07;;
26686;SDS011;14298;50.900;4.648;2023-03-03T01:48:46;9.07;;;4.27;;
26686;SDS011;14298;50.900;4.648;2023-03-03T01:51:19;4.07;;;3.67;;
26686;SDS011;14298;50.900;4.648;2023-03-03T01:54:09;5.23;;;4.73;;
26686;SDS011;14298;50.900;4.648;2023-03-03T01:56:29;4.57;;;4.13;;
26686;SDS011;14298;50.900;4.648;2023-03-03T01:58:59;6.20;;;3.67;;
26686;SDS011;14298;50.900;4.648;2023-03-03T02:01:35;3.83;;;3.40;;
26686;SDS011;14298;50.900;4.648;2023-03-03T02:04:03;5.10;;;4.53;;
26686;SDS011;14298;50.900;4.648;2023-03-03T02:06:39;3.93;;;3.30;;
26686;SDS011;14298;50.900;4.648;2023-03-03T02:09:21;7.67;;;3.67;;
26686;SDS011;14298;50.900;4.648;2023-03-03T02:11:53;3.60;;;3.10;;
26686;SDS011;14298;50.900;4.648;2023-03-03T02:14:25;4.13;;;3.70;;
26686;SDS011;14298;50.900;4.648;2023-03-03T02:16:53;3.93;;;3.63;;
26686;SDS011;14298;50.900;4.648;2023-03-03T02:22:14;4.20;;;3.53;;
26686;SDS011;14298;50.900;4.648;2023-03-03T02:24:49;3.50;;;3.23;;
26686;SDS011;14298;50.900;4.648;2023-03-03T02:27:19;2.87;;;2.67;;
26686;SDS011;14298;50.900;4.648;2023-03-03T02:29:48;4.47;;;3.33;;
26686;SDS011;14298;50.900;4.648;2023-03-03T02:32:17;8.73;;;4.20;;
26686;SDS011;14298;50.900;4.648;2023-03-03T02:34:52;8.83;;;5.90;;
26686;SDS011;14298;50.900;4.648;2023-03-03T02:37:17;3.30;;;3.10;;
26686;SDS011;14298;50.900;4.648;2023-03-03T02:39:46;8.60;;;5.97;;
26686;SDS011;14298;50.900;4.648;2023-03-03T02:42:19;3.70;;;3.40;;
26686;SDS011;14298;50.900;4.648;2023-03-03T02:44:49;5.30;;;4.17;;
26686;SDS011;14298;50.900;4.648;2023-03-03T02:47:17;3.37;;;3.07;;
26686;SDS011;14298;50.900;4.648;2023-03-03T02:49:46;2.67;;;2.57;;
26686;SDS011;14298;50.900;4.648;2023-03-03T02:52:14;3.83;;;3.53;;
26686;SDS011;14298;50.900;4.648;2023-03-03T02:54:44;4.43;;;4.03;;
26686;SDS011;14298;50.900;4.648;2023-03-03T02:57:13;3.40;;;3.00;;
26686;SDS011;14298;50.900;4.648;2023-03-03T02:59:41;5.83;;;5.23;;
26686;SDS011;14298;50.900;4.648;2023-03-03T03:02:09;6.47;;;4.40;;
26686;SDS011;14298;50.900;4.648;2023-03-03T03:04:38;4.83;;;4.43;;
26686;SDS011;14298;50.900;4.648;2023-03-03T03:07:07;8.37;;;5.07;;
26686;SDS011;14298;50.900;4.648;2023-03-03T03:09:35;3.67;;;3.37;;
26686;SDS011;14298;50.900;4.648;2023-03-03T03:12:04;4.67;;;4.27;;
26686;SDS011;14298;50.900;4.648;2023-03-03T03:14:33;3.07;;;2.87;;
26686;SDS011;14298;50.900;4.648;2023-03-03T03:19:49;7.60;;;4.83;;
26686;SDS011;14298;50.900;4.648;2023-03-03T03:22:17;3.03;;;2.83;;
26686;SDS011;14298;50.900;4.648;2023-03-03T03:27:34;6.77;;;4.17;;
26686;SDS011;14298;50.900;4.648;2023-03-03T03:30:02;5.10;;;4.00;;
26686;SDS011;14298;50.900;4.648;2023-03-03T03:32:31;5.30;;;4.00;;
26686;SDS011;14298;50.900;4.648;2023-03-03T03:34:59;5.77;;;5.23;;
26686;SDS011;14298;50.900;4.648;2023-03-03T03:37:28;6.20;;;5.50;;
26686;SDS011;14298;50.900;4.648;2023-03-03T03:39:56;5.53;;;3.93;;
26686;SDS011;14298;50.900;4.648;2023-03-03T03:42:25;5.50;;;5.00;;
26686;SDS011;14298;50.900;4.648;2023-03-03T03:44:53;4.93;;;4.50;;
26686;SDS011;14298;50.900;4.648;2023-03-03T03:47:21;5.90;;;4.53;;
26686;SDS011;14298;50.900;4.648;2023-03-03T03:49:50;4.53;;;4.10;;
26686;SDS011;14298;50.900;4.648;2023-03-03T03:52:18;7.70;;;5.87;;
26686;SDS011;14298;50.900;4.648;2023-03-03T03:54:46;12.17;;;4.67;;
26686;SDS011;14298;50.900;4.648;2023-03-03T03:57:15;8.47;;;6.03;;
26686;SDS011;14298;50.900;4.648;2023-03-03T03:59:43;5.73;;;5.23;;
26686;SDS011;14298;50.900;4.648;2023-03-03T04:02:11;9.70;;;4.50;;
26686;SDS011;14298;50.900;4.648;2023-03-03T04:04:40;9.27;;;7.27;;
26686;SDS011;14298;50.900;4.648;2023-03-03T04:07:08;6.67;;;4.70;;
26686;SDS011;14298;50.900;4.648;2023-03-03T04:09:36;6.47;;;5.83;;
26686;SDS011;14298;50.900;4.648;2023-03-03T04:12:05;5.17;;;4.70;;
26686;SDS011;14298;50.900;4.648;2023-03-03T04:14:33;4.93;;;4.63;;
26686;SDS011;14298;50.900;4.648;2023-03-03T04:17:01;5.47;;;4.97;;
26686;SDS011;14298;50.900;4.648;2023-03-03T04:19:30;6.13;;;5.50;;
26686;SDS011;14298;50.900;4.648;2023-03-03T04:21:58;5.80;;;5.17;;
26686;SDS011;14298;50.900;4.648;2023-03-03T04:24:26;6.83;;;5.90;;
26686;SDS011;14298;50.900;4.648;2023-03-03T04:26:55;8.67;;;5.37;;
26686;SDS011;14298;50.900;4.648;2023-03-03T04:29:23;8.20;;;5.43;;
26686;SDS011;14298;50.900;4.648;2023-03-03T04:31:51;4.73;;;4.37;;
26686;SDS011;14298;50.900;4.648;2023-03-03T04:34:20;11.83;;;5.33;;
26686;SDS011;14298;50.900;4.648;2023-03-03T04:36:49;7.53;;;5.30;;
26686;SDS011;14298;50.900;4.648;2023-03-03T04:39:17;7.10;;;6.43;;
26686;SDS011;14298;50.900;4.648;2023-03-03T04:41:46;7.40;;;4.73;;
26686;SDS011;14298;50.900;4.648;2023-03-03T04:44:14;6.90;;;6.23;;
26686;SDS011;14298;50.900;4.648;2023-03-03T04:46:42;6.90;;;5.57;;
26686;SDS011;14298;50.900;4.648;2023-03-03T04:49:11;10.07;;;5.70;;
26686;SDS011;14298;50.900;4.648;2023-03-03T04:51:39;7.67;;;6.83;;
26686;SDS011;14298;50.900;4.648;2023-03-03T04:54:07;7.03;;;6.07;;
26686;SDS011;14298;50.900;4.648;2023-03-03T04:56:36;5.20;;;4.83;;
26686;SDS011;14298;50.900;4.648;2023-03-03T04:59:04;8.17;;;5.37;;
26686;SDS011;14298;50.900;4.648;2023-03-03T05:01:32;9.20;;;5.87;;
26686;SDS011;14298;50.900;4.648;2023-03-03T05:04:01;6.03;;;5.00;;
26686;SDS011;14298;50.900;4.648;2023-03-03T05:09:17;6.50;;;5.43;;
26686;SDS011;14298;50.900;4.648;2023-03-03T05:11:45;10.47;;;6.13;;
26686;SDS011;14298;50.900;4.648;2023-03-03T05:14:14;4.83;;;4.50;;
26686;SDS011;14298;50.900;4.648;2023-03-03T05:16:42;7.70;;;5.70;;
26686;SDS011;14298;50.900;4.648;2023-03-03T05:19:10;11.47;;;8.03;;
26686;SDS011;14298;50.900;4.648;2023-03-03T05:21:39;9.83;;;5.53;;
26686;SDS011;14298;50.900;4.648;2023-03-03T05:24:08;8.37;;;6.33;;
26686;SDS011;14298;50.900;4.648;2023-03-03T05:26:38;7.43;;;4.77;;
26686;SDS011;14298;50.900;4.648;2023-03-03T05:29:07;8.60;;;5.83;;
26686;SDS011;14298;50.900;4.648;2023-03-03T05:31:36;8.57;;;6.40;;
26686;SDS011;14298;50.900;4.648;2023-03-03T05:34:04;8.50;;;6.10;;
26686;SDS011;14298;50.900;4.648;2023-03-03T05:36:32;9.10;;;4.57;;
26686;SDS011;14298;50.900;4.648;2023-03-03T05:39:01;10.40;;;4.87;;
26686;SDS011;14298;50.900;4.648;2023-03-03T05:44:17;6.13;;;5.50;;
26686;SDS011;14298;50.900;4.648;2023-03-03T05:46:46;7.60;;;4.40;;
26686;SDS011;14298;50.900;4.648;2023-03-03T05:49:14;5.53;;;4.40;;
26686;SDS011;14298;50.900;4.648;2023-03-03T05:51:42;10.90;;;7.10;;
26686;SDS011;14298;50.900;4.648;2023-03-03T05:54:11;6.70;;;5.73;;
26686;SDS011;14298;50.900;4.648;2023-03-03T05:56:39;6.17;;;5.13;;
26686;SDS011;14298;50.900;4.648;2023-03-03T05:59:08;10.77;;;7.53;;
26686;SDS011;14298;50.900;4.648;2023-03-03T06:01:36;10.53;;;6.03;;
26686;SDS011;14298;50.900;4.648;2023-03-03T06:04:04;11.17;;;6.83;;
26686;SDS011;14298;50.900;4.648;2023-03-03T06:06:34;6.57;;;5.33;;
26686;SDS011;14298;50.900;4.648;2023-03-03T06:09:02;10.57;;;6.73;;
26686;SDS011;14298;50.900;4.648;2023-03-03T06:11:31;9.13;;;5.60;;
26686;SDS011;14298;50.900;4.648;2023-03-03T06:13:59;11.17;;;6.30;;
26686;SDS011;14298;50.900;4.648;2023-03-03T06:16:27;14.80;;;7.07;;
26686;SDS011;14298;50.900;4.648;2023-03-03T06:18:56;8.40;;;5.33;;
26686;SDS011;14298;50.900;4.648;2023-03-03T06:21:24;7.50;;;6.30;;
26686;SDS011;14298;50.900;4.648;2023-03-03T06:23:52;9.10;;;6.93;;
26686;SDS011;14298;50.900;4.648;2023-03-03T06:26:21;10.67;;;4.53;;
26686;SDS011;14298;50.900;4.648;2023-03-03T06:28:49;6.63;;;6.00;;
26686;SDS011;14298;50.900;4.648;2023-03-03T06:31:19;12.37;;;7.53;;
26686;SDS011;14298;50.900;4.648;2023-03-03T06:33:48;9.83;;;6.93;;
26686;SDS011;14298;50.900;4.648;2023-03-03T06:36:17;7.90;;;4.97;;
26686;SDS011;14298;50.900;4.648;2023-03-03T06:38:47;15.77;;;6.10;;
26686;SDS011;14298;50.900;4.648;2023-03-03T06:41:16;10.63;;;6.37;;
26686;SDS011;14298;50.900;4.648;2023-03-03T06:43:44;9.07;;;6.50;;
26686;SDS011;14298;50.900;4.648;2023-03-03T06:48:53;7.17;;;5.40;;
26686;SDS011;14298;50.900;4.648;2023-03-03T06:51:22;13.27;;;6.53;;
26686;SDS011;14298;50.900;4.648;2023-03-03T06:53:54;4.77;;;4.07;;
26686;SDS011;14298;50.900;4.648;2023-03-03T06:56:25;8.50;;;4.10;;
26686;SDS011;14298;50.900;4.648;2023-03-03T06:58:57;9.50;;;5.50;;
26686;SDS011;14298;50.900;4.648;2023-03-03T07:01:35;21.80;;;5.23;;
26686;SDS011;14298;50.900;4.648;2023-03-03T07:04:09;6.17;;;5.57;;
26686;SDS011;14298;50.900;4.648;2023-03-03T07:06:54;12.13;;;5.27;;
26686;SDS011;14298;50.900;4.648;2023-03-03T07:12:18;10.50;;;6.53;;
26686;SDS011;14298;50.900;4.648;2023-03-03T07:14:52;5.67;;;5.13;;
26686;SDS011;14298;50.900;4.648;2023-03-03T07:17:25;8.23;;;5.17;;
26686;SDS011;14298;50.900;4.648;2023-03-03T07:19:53;9.97;;;5.07;;
26686;SDS011;14298;50.900;4.648;2023-03-03T07:22:23;6.97;;;6.23;;
26686;SDS011;14298;50.900;4.648;2023-03-03T07:24:53;5.87;;;3.93;;
26686;SDS011;14298;50.900;4.648;2023-03-03T07:27:27;5.87;;;5.23;;
26686;SDS011;14298;50.900;4.648;2023-03-03T07:30:18;12.57;;;5.93;;
26686;SDS011;14298;50.900;4.648;2023-03-03T07:32:42;7.97;;;3.97;;
26686;SDS011;14298;50.900;4.648;2023-03-03T07:40:59;7.07;;;5.47;;
26686;SDS011;14298;50.900;4.648;2023-03-03T07:49:20;5.20;;;4.20;;
26686;SDS011;14298;50.900;4.648;2023-03-03T07:51:55;7.33;;;4.67;;
26686;SDS011;14298;50.900;4.648;2023-03-03T07:57:01;22.50;;;6.87;;
26686;SDS011;14298;50.900;4.648;2023-03-03T07:59:50;5.90;;;4.70;;
26686;SDS011;14298;50.900;4.648;2023-03-03T08:05:33;10.33;;;5.73;;
26686;SDS011;14298;50.900;4.648;2023-03-03T08:15:55;4.50;;;3.83;;
26686;SDS011;14298;50.900;4.648;2023-03-03T08:18:24;6.07;;;4.50;;
26686;SDS011;14298;50.900;4.648;2023-03-03T08:21:14;4.60;;;3.87;;
26686;SDS011;14298;50.900;4.648;2023-03-03T08:23:35;8.23;;;6.47;;
26686;SDS011;14298;50.900;4.648;2023-03-03T08:26:03;5.90;;;4.70;;
26686;SDS011;14298;50.900;4.648;2023-03-03T08:34:00;7.43;;;5.40;;
26686;SDS011;14298;50.900;4.648;2023-03-03T08:36:30;4.10;;;3.67;;
26686;SDS011;14298;50.900;4.648;2023-03-03T08:38:58;3.23;;;2.97;;
26686;SDS011;14298;50.900;4.648;2023-03-03T08:44:14;3.73;;;3.43;;
26686;SDS011;14298;50.900;4.648;2023-03-03T08:46:42;8.03;;;4.20;;
26686;SDS011;14298;50.900;4.648;2023-03-03T08:49:11;5.70;;;5.17;;
26686;SDS011;14298;50.900;4.648;2023-03-03T08:51:39;22.77;;;4.00;;
26686;SDS011;14298;50.900;4.648;2023-03-03T08:54:08;6.23;;;4.30;;
26686;SDS011;14298;50.900;4.648;2023-03-03T08:56:36;6.97;;;4.73;;
26686;SDS011;14298;50.900;4.648;2023-03-03T08:59:04;5.57;;;4.23;;
26686;SDS011;14298;50.900;4.648;2023-03-03T09:01:33;6.20;;;5.60;;
26686;SDS011;14298;50.900;4.648;2023-03-03T09:04:02;8.13;;;4.60;;
26686;SDS011;14298;50.900;4.648;2023-03-03T09:06:30;8.23;;;4.73;;
26686;SDS011;14298;50.900;4.648;2023-03-03T09:08:59;12.77;;;5.90;;
26686;SDS011;14298;50.900;4.648;2023-03-03T09:11:28;9.60;;;6.73;;
26686;SDS011;14298;50.900;4.648;2023-03-03T09:16:50;7.93;;;4.00;;
26686;SDS011;14298;50.900;4.648;2023-03-03T09:19:27;3.77;;;3.27;;
26686;SDS011;14298;50.900;4.648;2023-03-03T09:22:01;9.70;;;5.30;;
26686;SDS011;14298;50.900;4.648;2023-03-03T09:24:48;10.57;;;6.53;;
26686;SDS011;14298;50.900;4.648;2023-03-03T09:27:26;3.87;;;3.50;;
26686;SDS011;14298;50.900;4.648;2023-03-03T09:29:54;4.83;;;4.33;;
26686;SDS011;14298;50.900;4.648;2023-03-03T09:32:30;11.17;;;5.10;;
26686;SDS011;14298;50.900;4.648;2023-03-03T09:34:59;6.20;;;3.97;;
26686;SDS011;14298;50.900;4.648;2023-03-03T09:37:48;7.17;;;5.13;;
26686;SDS011;14298;50.900;4.648;2023-03-03T09:43:08;7.07;;;5.40;;
26686;SDS011;14298;50.900;4.648;2023-03-03T09:53:59;6.30;;;4.60;;
26686;SDS011;14298;50.900;4.648;2023-03-03T09:59:59;8.27;;;3.70;;
26686;SDS011;14298;50.900;4.648;2023-03-03T10:02:34;5.33;;;4.63;;
26686;SDS011;14298;50.900;4.648;2023-03-03T10:19:44;6.23;;;4.43;;
26686;SDS011;14298;50.900;4.648;2023-03-03T10:28:10;6.77;;;4.53;;
26686;SDS011;14298;50.900;4.648;2023-03-03T10:31:18;6.80;;;4.40;;
26686;SDS011;14298;50.900;4.648;2023-03-03T10:40:16;13.53;;;6.37;;
26686;SDS011;14298;50.900;4.648;2023-03-03T10:49:06;8.00;;;5.00;;
26686;SDS011;14298;50.900;4.648;2023-03-03T10:54:31;4.00;;;3.60;;
26686;SDS011;14298;50.900;4.648;2023-03-03T10:57:23;10.53;;;4.47;;
26686;SDS011;14298;50.900;4.648;2023-03-03T11:08:51;3.17;;;2.97;;
26686;SDS011;14298;50.900;4.648;2023-03-03T11:14:59;5.77;;;4.83;;
26686;SDS011;14298;50.900;4.648;2023-03-03T11:17:04;9.00;;;4.97;;
26686;SDS011;14298;50.900;4.648;2023-03-03T11:25:49;7.30;;;6.23;;
26686;SDS011;14298;50.900;4.648;2023-03-03T11:28:25;9.40;;;5.70;;
26686;SDS011;14298;50.900;4.648;2023-03-03T11:31:12;8.13;;;4.20;;
26686;SDS011;14298;50.900;4.648;2023-03-03T11:34:13;8.97;;;3.40;;
26686;SDS011;14298;50.900;4.648;2023-03-03T11:37:00;6.23;;;4.40;;
26686;SDS011;14298;50.900;4.648;2023-03-03T11:39:38;9.83;;;4.07;;
26686;SDS011;14298;50.900;4.648;2023-03-03T11:42:14;5.97;;;3.90;;
26686;SDS011;14298;50.900;4.648;2023-03-03T11:47:46;7.83;;;4.23;;
26686;SDS011;14298;50.900;4.648;2023-03-03T11:50:24;6.33;;;4.40;;
26686;SDS011;14298;50.900;4.648;2023-03-03T11:58:12;3.70;;;3.40;;
26686;SDS011;14298;50.900;4.648;2023-03-03T12:01:00;3.73;;;3.33;;
26686;SDS011;14298;50.900;4.648;2023-03-03T12:12:00;8.27;;;4.37;;
26686;SDS011;14298;50.900;4.648;2023-03-03T12:14:38;5.63;;;3.77;;
26686;SDS011;14298;50.900;4.648;2023-03-03T12:17:47;5.83;;;5.27;;
26686;SDS011;14298;50.900;4.648;2023-03-03T12:20:31;3.33;;;3.03;;
26686;SDS011;14298;50.900;4.648;2023-03-03T12:26:41;6.63;;;4.33;;
26686;SDS011;14298;50.900;4.648;2023-03-03T12:35:15;6.60;;;4.03;;
26686;SDS011;14298;50.900;4.648;2023-03-03T12:49:08;5.40;;;3.93;;
26686;SDS011;14298;50.900;4.648;2023-03-03T12:51:41;4.47;;;3.63;;
26686;SDS011;14298;50.900;4.648;2023-03-03T12:59:47;5.80;;;3.30;;
26686;SDS011;14298;50.900;4.648;2023-03-03T13:08:28;3.97;;;3.37;;
26686;SDS011;14298;50.900;4.648;2023-03-03T13:16:14;5.67;;;3.63;;
26686;SDS011;14298;50.900;4.648;2023-03-03T13:21:34;7.67;;;4.77;;
26686;SDS011;14298;50.900;4.648;2023-03-03T13:24:31;9.07;;;4.33;;
26686;SDS011;14298;50.900;4.648;2023-03-03T13:27:18;3.10;;;2.80;;
26686;SDS011;14298;50.900;4.648;2023-03-03T13:29:56;4.73;;;3.77;;
26686;SDS011;14298;50.900;4.648;2023-03-03T13:32:31;8.47;;;4.17;;
26686;SDS011;14298;50.900;4.648;2023-03-03T13:37:38;6.67;;;3.13;;
26686;SDS011;14298;50.900;4.648;2023-03-03T13:50:48;6.83;;;4.67;;
26686;SDS011;14298;50.900;4.648;2023-03-03T14:01:46;4.70;;;2.63;;
26686;SDS011;14298;50.900;4.648;2023-03-03T14:15:56;3.03;;;2.70;;
26686;SDS011;14298;50.900;4.648;2023-03-03T14:18:29;5.63;;;3.10;;
26686;SDS011;14298;50.900;4.648;2023-03-03T14:24:13;4.03;;;3.33;;
26686;SDS011;14298;50.900;4.648;2023-03-03T14:26:47;2.43;;;2.20;;
26686;SDS011;14298;50.900;4.648;2023-03-03T14:29:21;4.20;;;2.70;;
26686;SDS011;14298;50.900;4.648;2023-03-03T14:34:43;6.30;;;4.10;;
26686;SDS011;14298;50.900;4.648;2023-03-03T14:37:23;2.23;;;2.03;;
26686;SDS011;14298;50.900;4.648;2023-03-03T14:40:00;4.77;;;3.47;;
26686;SDS011;14298;50.900;4.648;2023-03-03T14:42:45;4.60;;;3.30;;
26686;SDS011;14298;50.900;4.648;2023-03-03T14:45:35;3.27;;;2.63;;
26686;SDS011;14298;50.900;4.648;2023-03-03T14:48:27;4.07;;;2.87;;
26686;SDS011;14298;50.900;4.648;2023-03-03T14:50:47;2.73;;;2.53;;
26686;SDS011;14298;50.900;4.648;2023-03-03T14:53:40;2.93;;;2.73;;
26686;SDS011;14298;50.900;4.648;2023-03-03T14:56:16;2.87;;;2.67;;
26686;SDS011;14298;50.900;4.648;2023-03-03T14:59:39;4.17;;;3.87;;
26686;SDS011;14298;50.900;4.648;2023-03-03T15:01:42;2.80;;;2.60;;
26686;SDS011;14298;50.900;4.648;2023-03-03T15:06:45;2.17;;;2.03;;
26686;SDS011;14298;50.900;4.648;2023-03-03T15:09:21;3.70;;;2.03;;
26686;SDS011;14298;50.900;4.648;2023-03-03T15:12:02;3.90;;;2.37;;
26686;SDS011;14298;50.900;4.648;2023-03-03T15:14:51;2.33;;;2.13;;
26686;SDS011;14298;50.900;4.648;2023-03-03T15:28:26;2.33;;;2.20;;
26686;SDS011;14298;50.900;4.648;2023-03-03T15:43:33;2.10;;;2.00;;
26686;SDS011;14298;50.900;4.648;2023-03-03T15:46:26;2.73;;;1.93;;
26686;SDS011;14298;50.900;4.648;2023-03-03T15:49:16;7.87;;;2.77;;
26686;SDS011;14298;50.900;4.648;2023-03-03T16:01:14;2.90;;;2.43;;
26686;SDS011;14298;50.900;4.648;2023-03-03T16:03:51;2.77;;;2.57;;
26686;SDS011;14298;50.900;4.648;2023-03-03T16:12:07;6.97;;;2.93;;
26686;SDS011;14298;50.900;4.648;2023-03-03T16:14:53;3.13;;;2.90;;
26686;SDS011;14298;50.900;4.648;2023-03-03T16:20:40;5.87;;;2.57;;
26686;SDS011;14298;50.900;4.648;2023-03-03T16:35:11;1.90;;;1.77;;
26686;SDS011;14298;50.900;4.648;2023-03-03T16:37:35;2.30;;;2.10;;
26686;SDS011;14298;50.900;4.648;2023-03-03T16:42:51;2.80;;;2.00;;
26686;SDS011;14298;50.900;4.648;2023-03-03T16:45:21;2.67;;;2.47;;
26686;SDS011;14298;50.900;4.648;2023-03-03T16:54:10;3.17;;;2.13;;
26686;SDS011;14298;50.900;4.648;2023-03-03T16:56:42;2.33;;;2.13;;
26686;SDS011;14298;50.900;4.648;2023-03-03T16:59:26;3.10;;;2.73;;
26686;SDS011;14298;50.900;4.648;2023-03-03T17:02:42;2.40;;;2.30;;
26686;SDS011;14298;50.900;4.648;2023-03-03T17:07:43;5.80;;;2.90;;
26686;SDS011;14298;50.900;4.648;2023-03-03T17:10:24;2.00;;;1.90;;
26686;SDS011;14298;50.900;4.648;2023-03-03T17:15:56;2.33;;;2.10;;
26686;SDS011;14298;50.900;4.648;2023-03-03T17:18:42;4.47;;;3.63;;
26686;SDS011;14298;50.900;4.648;2023-03-03T17:27:02;3.33;;;2.93;;
26686;SDS011;14298;50.900;4.648;2023-03-03T17:32:53;3.07;;;2.83;;
26686;SDS011;14298;50.900;4.648;2023-03-03T17:35:45;2.87;;;2.60;;
26686;SDS011;14298;50.900;4.648;2023-03-03T17:38:24;3.93;;;3.43;;
26686;SDS011;14298;50.900;4.648;2023-03-03T17:41:15;3.63;;;3.10;;
26686;SDS011;14298;50.900;4.648;2023-03-03T18:00:31;5.97;;;3.60;;
26686;SDS011;14298;50.900;4.648;2023-03-03T18:03:21;4.77;;;3.47;;
26686;SDS011;14298;50.900;4.648;2023-03-03T18:08:57;3.60;;;3.17;;
26686;SDS011;14298;50.900;4.648;2023-03-03T18:11:49;6.17;;;4.17;;
26686;SDS011;14298;50.900;4.648;2023-03-03T18:20:00;3.20;;;2.90;;
26686;SDS011;14298;50.900;4.648;2023-03-03T18:22:44;3.37;;;3.17;;
26686;SDS011;14298;50.900;4.648;2023-03-03T18:25:16;4.83;;;2.83;;
26686;SDS011;14298;50.900;4.648;2023-03-03T18:27:45;3.23;;;2.93;;
26686;SDS011;14298;50.900;4.648;2023-03-03T18:33:34;2.90;;;2.70;;
26686;SDS011;14298;50.900;4.648;2023-03-03T18:36:35;7.43;;;3.73;;
26686;SDS011;14298;50.900;4.648;2023-03-03T18:44:31;7.57;;;3.47;;
26686;SDS011;14298;50.900;4.648;2023-03-03T18:47:00;4.63;;;3.23;;
26686;SDS011;14298;50.900;4.648;2023-03-03T18:52:22;5.10;;;3.83;;
26686;SDS011;14298;50.900;4.648;2023-03-03T18:55:04;5.30;;;3.00;;
26686;SDS011;14298;50.900;4.648;2023-03-03T18:58:20;5.37;;;2.53;;
26686;SDS011;14298;50.900;4.648;2023-03-03T19:00:28;7.20;;;3.57;;
26686;SDS011;14298;50.900;4.648;2023-03-03T19:02:58;4.00;;;2.87;;
26686;SDS011;14298;50.900;4.648;2023-03-03T19:05:46;3.37;;;2.17;;
26686;SDS011;14298;50.900;4.648;2023-03-03T19:08:02;4.30;;;3.07;;
26686;SDS011;14298;50.900;4.648;2023-03-03T19:16:06;4.53;;;4.13;;
26686;SDS011;14298;50.900;4.648;2023-03-03T19:18:59;3.77;;;3.37;;
26686;SDS011;14298;50.900;4.648;2023-03-03T19:21:34;3.70;;;2.67;;
26686;SDS011;14298;50.900;4.648;2023-03-03T19:24:04;2.23;;;2.10;;
26686;SDS011;14298;50.900;4.648;2023-03-03T19:26:46;3.47;;;3.17;;
26686;SDS011;14298;50.900;4.648;2023-03-03T19:47:29;4.00;;;3.67;;
26686;SDS011;14298;50.900;4.648;2023-03-03T19:50:20;4.93;;;3.03;;
26686;SDS011;14298;50.900;4.648;2023-03-03T19:53:10;7.07;;;5.80;;
26686;SDS011;14298;50.900;4.648;2023-03-03T20:01:27;2.30;;;2.20;;
26686;SDS011;14298;50.900;4.648;2023-03-03T20:04:15;4.27;;;2.80;;
26686;SDS011;14298;50.900;4.648;2023-03-03T20:12:29;3.03;;;2.83;;
26686;SDS011;14298;50.900;4.648;2023-03-03T20:17:58;2.53;;;2.33;;
26686;SDS011;14298;50.900;4.648;2023-03-03T20:20:34;8.60;;;2.60;;
26686;SDS011;14298;50.900;4.648;2023-03-03T20:23:32;2.20;;;2.03;;
26686;SDS011;14298;50.900;4.648;2023-03-03T20:26:30;2.77;;;2.57;;
26686;SDS011;14298;50.900;4.648;2023-03-03T20:29:05;2.73;;;1.77;;
26686;SDS011;14298;50.900;4.648;2023-03-03T20:31:54;1.77;;;1.67;;
26686;SDS011;14298;50.900;4.648;2023-03-03T20:37:10;5.83;;;3.13;;
26686;SDS011;14298;50.900;4.648;2023-03-03T20:42:55;4.60;;;4.10;;
26686;SDS011;14298;50.900;4.648;2023-03-03T20:48:38;1.83;;;1.80;;
26686;SDS011;14298;50.900;4.648;2023-03-03T20:57:18;4.00;;;3.70;;
26686;SDS011;14298;50.900;4.648;2023-03-03T21:05:20;1.73;;;1.63;;
26686;SDS011;14298;50.900;4.648;2023-03-03T21:07:54;2.63;;;1.77;;
26686;SDS011;14298;50.900;4.648;2023-03-03T21:10:27;1.37;;;1.30;;
26686;SDS011;14298;50.900;4.648;2023-03-03T21:15:58;1.33;;;1.33;;
26686;SDS011;14298;50.900;4.648;2023-03-03T21:18:26;1.40;;;1.40;;
26686;SDS011;14298;50.900;4.648;2023-03-03T21:20:54;2.23;;;1.63;;
26686;SDS011;14298;50.900;4.648;2023-03-03T21:23:23;2.33;;;2.23;;
26686;SDS011;14298;50.900;4.648;2023-03-03T21:25:57;3.43;;;3.13;;
26686;SDS011;14298;50.900;4.648;2023-03-03T21:31:13;2.83;;;2.33;;
26686;SDS011;14298;50.900;4.648;2023-03-03T21:33:53;2.17;;;2.07;;
26686;SDS011;14298;50.900;4.648;2023-03-03T21:39:27;2.40;;;2.20;;
26686;SDS011;14298;50.900;4.648;2023-03-03T21:41:58;1.50;;;1.50;;
26686;SDS011;14298;50.900;4.648;2023-03-03T21:44:39;2.13;;;1.97;;
26686;SDS011;14298;50.900;4.648;2023-03-03T21:47:17;8.47;;;2.70;;
26686;SDS011;14298;50.900;4.648;2023-03-03T21:49:47;2.60;;;2.40;;
26686;SDS011;14298;50.900;4.648;2023-03-03T21:52:17;3.17;;;2.43;;
26686;SDS011;14298;50.900;4.648;2023-03-03T21:54:48;2.93;;;2.73;;
26686;SDS011;14298;50.900;4.648;2023-03-03T22:00:05;3.73;;;3.17;;
26686;SDS011;14298;50.900;4.648;2023-03-03T22:02:35;2.50;;;2.30;;
26686;SDS011;14298;50.900;4.648;2023-03-03T22:05:04;2.20;;;2.10;;
26686;SDS011;14298;50.900;4.648;2023-03-03T22:07:33;2.77;;;2.50;;
26686;SDS011;14298;50.900;4.648;2023-03-03T22:10:01;4.60;;;2.73;;
26686;SDS011;14298;50.900;4.648;2023-03-03T22:12:32;2.53;;;2.33;;
26686;SDS011;14298;50.900;4.648;2023-03-03T22:15:01;3.93;;;3.63;;